createdAt,value
2023-05-01T00:01:53.591Z,6.13
2023-05-01T00:04:21.868Z,5.78
2023-05-01T00:06:48.753Z,6.38
2023-05-01T00:09:15.494Z,6.00
2023-05-01T00:11:42.304Z,5.25
2023-05-01T00:14:09.044Z,6.07
2023-05-01T00:16:36.553Z,7.38
2023-05-01T00:19:04.626Z,6.80
2023-05-01T00:21:31.317Z,6.75
2023-05-01T00:23:58.681Z,6.40
2023-05-01T00:26:29.685Z,6.22
2023-05-01T00:28:56.306Z,5.97
2023-05-01T00:31:24.873Z,6.72
2023-05-01T00:33:51.595Z,6.43
2023-05-01T00:36:18.271Z,7.45
2023-05-01T00:38:46.338Z,7.28
2023-05-01T00:41:13.069Z,6.03
2023-05-01T00:43:39.670Z,6.75
2023-05-01T00:46:07.154Z,5.97
2023-05-01T00:48:34.034Z,6.00
2023-05-01T00:51:01.087Z,6.72
2023-05-01T00:53:28.240Z,6.03
2023-05-01T00:55:56.430Z,6.00
2023-05-01T00:58:23.130Z,5.80
2023-05-01T01:00:49.925Z,5.32
2023-05-01T01:03:16.579Z,6.43
2023-05-01T01:05:46.881Z,5.93
2023-05-01T01:08:25.570Z,6.00
2023-05-01T01:11:13.894Z,5.78
2023-05-01T01:13:49.245Z,6.43
2023-05-01T01:16:41.630Z,6.05
2023-05-01T01:19:29.104Z,5.80
2023-05-01T01:21:58.773Z,5.50
2023-05-01T01:24:48.548Z,5.90
2023-05-01T01:27:55.695Z,5.78
2023-05-01T01:30:58.213Z,5.22
2023-05-01T01:33:48.937Z,6.03
2023-05-01T01:36:21.391Z,5.80
2023-05-01T01:38:55.324Z,6.32
2023-05-01T01:41:30.240Z,6.32
2023-05-01T01:44:03.104Z,5.88
2023-05-01T01:46:29.816Z,6.03
2023-05-01T01:48:56.487Z,5.95
2023-05-01T01:51:23.464Z,7.53
2023-05-01T01:53:53.698Z,5.25
2023-05-01T01:56:20.789Z,5.97
2023-05-01T01:58:47.721Z,5.78
2023-05-01T02:01:14.706Z,6.03
2023-05-01T02:03:41.596Z,6.53
2023-05-01T02:06:08.782Z,6.28
2023-05-01T02:08:35.577Z,6.28
2023-05-01T02:11:02.438Z,6.40
2023-05-01T02:13:29.834Z,5.90
2023-05-01T02:15:58.258Z,6.13
2023-05-01T02:18:27.346Z,6.10
2023-05-01T02:20:54.103Z,5.47
2023-05-01T02:23:21.087Z,5.75
2023-05-01T02:25:48.545Z,7.25
2023-05-01T02:28:16.219Z,6.43
2023-05-01T02:30:42.832Z,6.40
2023-05-01T02:33:09.783Z,6.43
2023-05-01T02:35:44.502Z,6.43
2023-05-01T02:38:12.856Z,5.95
2023-05-01T02:40:39.876Z,6.53
2023-05-01T02:43:09.184Z,6.63
2023-05-01T02:45:38.326Z,6.57
2023-05-01T02:48:06.518Z,6.70
2023-05-01T02:50:33.574Z,6.82
2023-05-01T02:53:00.562Z,5.93
2023-05-01T02:55:27.300Z,7.15
2023-05-01T02:57:57.432Z,6.40
2023-05-01T03:00:24.108Z,6.38
2023-05-01T03:02:50.761Z,5.88
2023-05-01T03:05:17.550Z,7.50
2023-05-01T03:07:44.580Z,6.70
2023-05-01T03:10:11.376Z,6.95
2023-05-01T03:12:38.118Z,6.00
2023-05-01T03:15:05.804Z,5.53
2023-05-01T03:17:32.463Z,5.90
2023-05-01T03:19:59.079Z,5.82
2023-05-01T03:22:28.676Z,6.47
2023-05-01T03:24:55.334Z,5.97
2023-05-01T03:27:22.039Z,5.85
2023-05-01T03:29:49.744Z,6.35
2023-05-01T03:32:17.763Z,6.95
2023-05-01T03:34:45.260Z,6.97
2023-05-01T03:37:12.024Z,6.18
2023-05-01T03:39:38.667Z,5.63
2023-05-01T03:42:05.715Z,6.03
2023-05-01T03:44:32.651Z,7.32
2023-05-01T03:46:59.414Z,6.43
2023-05-01T03:49:26.095Z,7.80
2023-05-01T03:51:52.858Z,6.68
2023-05-01T03:54:19.620Z,6.70
2023-05-01T03:56:46.431Z,7.28
2023-05-01T03:59:14.198Z,7.10
2023-05-01T04:01:41.002Z,6.47
2023-05-01T04:04:08.038Z,6.72
2023-05-01T04:06:35.301Z,6.03
2023-05-01T04:09:02.556Z,7.00
2023-05-01T04:11:29.192Z,7.18
2023-05-01T04:13:55.892Z,6.70
2023-05-01T04:16:22.696Z,6.20
2023-05-01T04:18:49.385Z,6.45
2023-05-01T04:21:17.622Z,7.07
2023-05-01T04:23:44.432Z,6.55
2023-05-01T04:26:11.029Z,6.13
2023-05-01T04:28:37.951Z,7.20
2023-05-01T04:31:04.679Z,6.60
2023-05-01T04:33:31.387Z,7.93
2023-05-01T04:35:58.020Z,7.03
2023-05-01T04:38:24.854Z,6.78
2023-05-01T04:40:52.539Z,7.20
2023-05-01T04:43:19.244Z,7.32
2023-05-01T04:45:46.004Z,6.65
2023-05-01T04:48:12.680Z,7.28
2023-05-01T04:50:39.378Z,6.68
2023-05-01T04:53:06.092Z,7.63
2023-05-01T04:55:32.780Z,6.63
2023-05-01T04:57:59.578Z,7.28
2023-05-01T05:00:28.042Z,6.53
2023-05-01T05:02:55.096Z,5.85
2023-05-01T05:05:21.766Z,7.13
2023-05-01T05:07:48.825Z,6.13
2023-05-01T05:10:15.638Z,7.30
2023-05-01T05:12:42.200Z,6.78
2023-05-01T05:15:09.296Z,6.65
2023-05-01T05:17:36.032Z,6.68
2023-05-01T05:20:02.925Z,6.38
2023-05-01T05:22:29.588Z,6.07
2023-05-01T05:24:56.744Z,6.20
2023-05-01T05:27:23.631Z,7.00
2023-05-01T05:29:50.662Z,5.80
2023-05-01T05:32:17.468Z,6.97
2023-05-01T05:34:44.183Z,6.53
2023-05-01T05:37:11.720Z,7.18
2023-05-01T05:39:38.361Z,6.50
2023-05-01T05:42:05.527Z,7.68
2023-05-01T05:44:33.058Z,6.90
2023-05-01T05:47:06.580Z,5.72
2023-05-01T05:49:33.251Z,6.18
2023-05-01T05:51:59.840Z,6.07
2023-05-01T05:54:26.581Z,6.40
2023-05-01T05:56:53.183Z,5.85
2023-05-01T05:59:19.801Z,5.30
2023-05-01T06:01:47.142Z,5.07
2023-05-01T06:04:15.038Z,5.43
2023-05-01T06:06:41.776Z,4.80
2023-05-01T06:09:08.789Z,6.03
2023-05-01T06:11:35.903Z,6.03
2023-05-01T06:14:02.761Z,5.95
2023-05-01T06:16:29.673Z,5.90
2023-05-01T06:18:56.989Z,5.55
2023-05-01T06:21:23.620Z,6.18
2023-05-01T06:23:50.633Z,6.43
2023-05-01T06:26:17.315Z,5.93
2023-05-01T06:28:44.067Z,6.45
2023-05-01T06:31:11.005Z,5.38
2023-05-01T06:33:37.737Z,5.57
2023-05-01T06:36:04.725Z,5.55
2023-05-01T06:38:32.901Z,6.40
2023-05-01T06:40:59.654Z,6.80
2023-05-01T06:43:30.566Z,6.28
2023-05-01T06:45:57.457Z,5.65
2023-05-01T06:48:24.121Z,6.03
2023-05-01T06:50:51.047Z,5.63
2023-05-01T06:53:17.718Z,6.60
2023-05-01T06:55:44.325Z,5.88
2023-05-01T06:58:22.560Z,6.05
2023-05-01T07:00:51.051Z,5.97
2023-05-01T07:03:17.949Z,6.05
2023-05-01T07:05:44.704Z,6.47
2023-05-01T07:08:11.337Z,6.65
2023-05-01T07:10:39.877Z,6.00
2023-05-01T07:13:09.098Z,6.47
2023-05-01T07:15:35.760Z,6.82
2023-05-01T07:18:03.219Z,5.55
2023-05-01T07:20:30.170Z,5.75
2023-05-01T07:22:56.857Z,4.93
2023-05-01T07:25:23.632Z,7.15
2023-05-01T07:27:50.448Z,6.38
2023-05-01T07:30:17.097Z,6.40
2023-05-01T07:32:43.827Z,6.10
2023-05-01T07:35:10.557Z,6.10
2023-05-01T07:37:37.300Z,5.53
2023-05-01T07:40:04.301Z,6.07
2023-05-01T07:42:31.201Z,5.25
2023-05-01T07:44:58.089Z,5.82
2023-05-01T07:47:24.957Z,5.28
2023-05-01T07:49:51.580Z,6.13
2023-05-01T07:52:18.303Z,5.60
2023-05-01T07:54:49.823Z,5.32
2023-05-01T07:57:16.669Z,6.50
2023-05-01T07:59:43.312Z,5.60
2023-05-01T08:02:10.304Z,6.32
2023-05-01T08:04:37.158Z,6.97
2023-05-01T08:07:04.219Z,5.50
2023-05-01T08:09:31.184Z,6.22
2023-05-01T08:11:58.199Z,5.20
2023-05-01T08:14:25.101Z,5.43
2023-05-01T08:16:55.163Z,5.93
2023-05-01T08:19:22.035Z,5.53
2023-05-01T08:21:48.728Z,7.43
2023-05-01T08:24:15.420Z,5.90
2023-05-01T08:26:42.073Z,6.10
2023-05-01T08:29:08.748Z,6.00
2023-05-01T08:31:37.679Z,6.13
2023-05-01T08:34:04.962Z,6.63
2023-05-01T08:36:32.531Z,6.82
2023-05-01T08:38:59.354Z,6.25
2023-05-01T08:41:26.623Z,6.82
2023-05-01T08:43:53.336Z,6.72
2023-05-01T08:46:24.766Z,6.90
2023-05-01T08:48:55.945Z,6.22
2023-05-01T08:51:23.023Z,6.70
2023-05-01T08:53:52.093Z,6.70
2023-05-01T08:56:19.845Z,6.72
2023-05-01T08:58:46.518Z,7.38
2023-05-01T09:01:15.521Z,7.03
2023-05-01T09:03:44.491Z,6.90
2023-05-01T09:06:11.609Z,7.20
2023-05-01T09:08:38.397Z,7.82
2023-05-01T09:11:05.052Z,8.32
2023-05-01T09:13:31.832Z,7.50
2023-05-01T09:15:58.556Z,9.02
2023-05-01T09:18:25.368Z,7.97
2023-05-01T09:20:52.072Z,7.78
2023-05-01T09:23:20.199Z,7.88
2023-05-01T09:25:46.986Z,8.38
2023-05-01T09:28:13.716Z,8.80
2023-05-01T09:30:40.467Z,8.50
2023-05-01T09:33:15.397Z,9.38
2023-05-01T09:35:58.936Z,8.18
2023-05-01T09:38:27.228Z,9.95
2023-05-01T09:40:57.200Z,8.23
2023-05-01T09:43:26.773Z,9.75
2023-05-01T09:46:04.961Z,10.73
2023-05-01T09:48:35.077Z,11.50
2023-05-01T09:51:04.709Z,10.70
2023-05-01T09:53:39.089Z,10.45
2023-05-01T09:56:06.583Z,10.63
2023-05-01T09:58:33.267Z,10.82
2023-05-01T10:01:00.359Z,10.85
2023-05-01T10:03:28.047Z,10.52
2023-05-01T10:05:57.070Z,12.27
2023-05-01T10:08:24.132Z,11.52
2023-05-01T10:11:05.871Z,10.43
2023-05-01T10:13:32.640Z,11.02
2023-05-01T10:16:01.408Z,11.73
2023-05-01T10:18:28.498Z,12.15
2023-05-01T10:20:55.242Z,11.18
2023-05-01T10:23:22.526Z,12.68
2023-05-01T10:25:49.446Z,14.45
2023-05-01T10:28:16.138Z,13.30
2023-05-01T10:30:42.757Z,11.95
2023-05-01T10:33:09.390Z,12.02
2023-05-01T10:35:38.259Z,12.82
2023-05-01T10:38:06.379Z,12.93
2023-05-01T10:51:26.593Z,13.25
2023-05-01T10:56:51.445Z,13.65
2023-05-01T10:59:18.084Z,16.92
2023-05-01T11:01:48.505Z,15.10
2023-05-01T11:09:54.194Z,14.52
2023-05-01T11:12:56.817Z,14.40
2023-05-01T11:15:28.067Z,15.63
2023-05-01T11:17:55.926Z,15.32
2023-05-01T11:23:03.452Z,14.32
2023-05-01T11:25:30.969Z,15.15
2023-05-01T11:28:01.737Z,17.52
2023-05-01T11:30:43.424Z,14.63
2023-05-01T11:33:11.141Z,17.60
2023-05-01T11:35:39.149Z,14.85
2023-05-01T11:38:06.025Z,15.05
2023-05-01T11:40:34.874Z,14.40
2023-05-01T11:43:09.037Z,14.88
2023-05-01T11:45:36.868Z,13.85
2023-05-01T11:48:04.933Z,15.30
2023-05-01T11:50:32.772Z,14.55
2023-05-01T11:52:59.493Z,15.00
2023-05-01T11:55:34.027Z,14.68
2023-05-01T11:58:00.798Z,14.68
2023-05-01T12:00:29.481Z,13.98
2023-05-01T12:03:03.221Z,13.38
2023-05-01T12:05:31.152Z,13.00
2023-05-01T12:10:55.966Z,13.45
2023-05-01T12:13:22.928Z,12.33
2023-05-01T12:15:52.413Z,13.57
2023-05-01T12:18:19.402Z,13.73
2023-05-01T12:20:47.808Z,13.32
2023-05-01T12:23:16.821Z,10.95
2023-05-01T12:25:44.954Z,13.13
2023-05-01T12:28:14.164Z,12.52
2023-05-01T12:30:41.655Z,12.45
2023-05-01T12:33:13.335Z,13.13
2023-05-01T12:35:41.046Z,13.07
2023-05-01T12:38:12.732Z,12.52
2023-05-01T12:40:40.448Z,11.63
2023-05-01T12:43:07.192Z,13.23
2023-05-01T12:45:41.401Z,12.27
2023-05-01T12:48:15.151Z,12.50
2023-05-01T12:50:42.060Z,11.55
2023-05-01T12:53:09.844Z,14.38
2023-05-01T12:55:45.759Z,13.57
2023-05-01T12:58:12.787Z,12.60
2023-05-01T13:00:46.734Z,12.48
2023-05-01T13:03:13.928Z,12.30
2023-05-01T13:06:01.582Z,13.82
2023-05-01T13:08:33.187Z,13.75
2023-05-01T13:11:01.707Z,12.05
2023-05-01T13:13:31.687Z,10.65
2023-05-01T13:16:12.288Z,11.60
2023-05-01T13:21:24.010Z,10.93
2023-05-01T13:23:54.780Z,10.20
2023-05-01T13:26:31.510Z,9.38
2023-05-01T13:28:58.705Z,10.35
2023-05-01T13:31:25.666Z,10.05
2023-05-01T13:33:53.461Z,10.38
2023-05-01T13:36:25.970Z,10.30
2023-05-01T13:38:55.683Z,11.52
2023-05-01T13:41:23.338Z,10.60
2023-05-01T13:43:52.819Z,11.15
2023-05-01T13:46:22.425Z,9.45
2023-05-01T13:48:49.598Z,11.55
2023-05-01T13:51:24.971Z,11.63
2023-05-01T13:53:53.245Z,10.25
2023-05-01T13:56:21.561Z,10.32
2023-05-01T13:58:48.493Z,10.07
2023-05-01T14:01:16.955Z,11.05
2023-05-01T14:03:43.772Z,11.85
2023-05-01T14:06:13.336Z,12.32
2023-05-01T14:08:40.053Z,11.50
2023-05-01T14:11:07.916Z,11.65
2023-05-01T14:13:35.919Z,10.88
2023-05-01T14:16:07.171Z,10.60
2023-05-01T14:18:35.144Z,10.73
2023-05-01T14:21:01.881Z,11.35
2023-05-01T14:23:29.299Z,10.02
2023-05-01T14:25:56.154Z,10.88
2023-05-01T14:28:23.661Z,10.43
2023-05-01T14:30:51.227Z,10.57
2023-05-01T14:33:18.144Z,9.73
2023-05-01T14:35:49.841Z,9.10
2023-05-01T14:38:17.314Z,9.45
2023-05-01T14:40:44.431Z,9.07
2023-05-01T14:43:16.228Z,9.82
2023-05-01T14:45:43.403Z,9.73
2023-05-01T14:48:10.956Z,9.57
2023-05-01T14:50:37.756Z,10.27
2023-05-01T14:53:04.510Z,9.00
2023-05-01T14:55:34.740Z,9.40
2023-05-01T14:58:01.883Z,8.52
2023-05-01T15:00:28.505Z,8.55
2023-05-01T15:02:55.604Z,8.27
2023-05-01T15:05:23.824Z,8.30
2023-05-01T15:07:51.018Z,7.75
2023-05-01T15:10:17.733Z,8.85
2023-05-01T15:12:44.371Z,7.05
2023-05-01T15:15:11.355Z,6.63
2023-05-01T15:17:38.076Z,7.93
2023-05-01T15:20:05.732Z,8.68
2023-05-01T15:22:32.541Z,7.78
2023-05-01T15:24:59.453Z,8.27
2023-05-01T15:27:26.508Z,7.97
2023-05-01T15:29:53.154Z,8.25
2023-05-01T15:32:19.982Z,12.25
2023-05-01T15:34:46.768Z,8.38
2023-05-01T15:37:13.767Z,7.78
2023-05-01T15:39:40.600Z,8.88
2023-05-01T15:42:07.445Z,8.27
2023-05-01T15:44:34.097Z,8.93
2023-05-01T15:47:00.681Z,8.23
2023-05-01T15:49:27.400Z,8.00
2023-05-01T15:51:54.917Z,9.27
2023-05-01T15:54:21.676Z,9.38
2023-05-01T15:56:48.384Z,8.70
2023-05-01T15:59:15.156Z,9.68
2023-05-01T16:01:42.351Z,9.02
2023-05-01T16:04:09.165Z,9.88
2023-05-01T16:06:35.991Z,10.63
2023-05-01T16:09:02.847Z,10.85
2023-05-01T16:11:30.397Z,11.30
2023-05-01T16:13:57.240Z,12.27
2023-05-01T16:16:25.516Z,12.73
2023-05-01T16:18:55.710Z,10.65
2023-05-01T16:21:23.167Z,9.73
2023-05-01T16:23:50.934Z,8.85
2023-05-01T16:26:22.999Z,8.63
2023-05-01T16:28:50.117Z,8.70
2023-05-01T16:31:27.211Z,9.10
2023-05-01T16:33:54.700Z,9.60
2023-05-01T16:36:21.684Z,9.80
2023-05-01T16:38:48.406Z,10.35
2023-05-01T16:41:17.175Z,9.82
2023-05-01T16:43:45.039Z,10.05
2023-05-01T16:46:13.384Z,10.10
2023-05-01T16:48:40.375Z,10.70
2023-05-01T16:51:08.311Z,11.63
2023-05-01T16:53:34.964Z,11.32
2023-05-01T16:56:01.672Z,12.23
2023-05-01T16:58:28.413Z,12.45
2023-05-01T17:00:55.756Z,12.43
2023-05-01T17:03:22.412Z,11.88
2023-05-01T17:05:49.046Z,11.35
2023-05-01T17:08:15.921Z,12.23
2023-05-01T17:10:44.652Z,13.30
2023-05-01T17:13:13.580Z,12.02
2023-05-01T17:15:40.258Z,12.32
2023-05-01T17:18:06.938Z,11.48
2023-05-01T17:20:33.844Z,13.38
2023-05-01T17:23:00.496Z,11.88
2023-05-01T17:25:27.148Z,12.93
2023-05-01T17:27:54.742Z,12.43
2023-05-01T17:30:21.452Z,12.30
2023-05-01T17:32:48.215Z,14.05
2023-05-01T17:35:16.573Z,12.52
2023-05-01T17:37:43.393Z,14.50
2023-05-01T17:40:11.515Z,13.98
2023-05-01T17:42:38.217Z,15.55
2023-05-01T17:45:07.385Z,14.15
2023-05-01T17:47:34.551Z,14.57
2023-05-01T17:50:04.446Z,14.40
2023-05-01T17:52:31.340Z,13.38
2023-05-01T17:54:58.286Z,14.88
2023-05-01T17:57:25.059Z,16.42
2023-05-01T17:59:51.772Z,15.07
2023-05-01T18:02:18.491Z,12.93
2023-05-01T18:04:46.842Z,13.80
2023-05-01T18:07:13.569Z,13.15
2023-05-01T18:09:40.393Z,11.45
2023-05-01T18:12:07.086Z,13.65
2023-05-01T18:14:33.786Z,14.82
2023-05-01T18:17:00.685Z,14.73
2023-05-01T18:19:27.474Z,13.38
2023-05-01T18:21:54.181Z,14.27
2023-05-01T18:24:20.880Z,17.65
2023-05-01T18:26:47.507Z,15.05
2023-05-01T18:29:14.215Z,13.40
2023-05-01T18:31:40.900Z,13.05
2023-05-01T18:34:10.011Z,12.82
2023-05-01T18:36:36.684Z,12.07
2023-05-01T18:39:03.351Z,11.55
2023-05-01T18:41:29.949Z,13.85
2023-05-01T18:43:58.100Z,11.88
2023-05-01T18:46:25.050Z,9.15
2023-05-01T18:48:51.734Z,10.45
2023-05-01T18:51:18.449Z,8.63
2023-05-01T18:53:45.051Z,8.23
2023-05-01T18:56:11.764Z,7.72
2023-05-01T18:58:39.773Z,8.05
2023-05-01T19:01:06.821Z,6.88
2023-05-01T19:03:33.541Z,6.55
2023-05-01T19:06:00.413Z,6.05
2023-05-01T19:08:27.110Z,7.30
2023-05-01T19:10:53.812Z,5.82
2023-05-01T19:13:20.654Z,6.85
2023-05-01T19:15:47.497Z,5.75
2023-05-01T19:18:14.965Z,6.97
2023-05-01T19:20:41.623Z,7.30
2023-05-01T19:23:08.288Z,5.38
2023-05-01T19:25:35.862Z,4.70
2023-05-01T19:28:02.484Z,6.25
2023-05-01T19:30:29.523Z,5.68
2023-05-01T19:32:57.824Z,8.23
2023-05-01T19:35:24.598Z,5.15
2023-05-01T19:37:55.423Z,5.30
2023-05-01T19:40:22.232Z,6.60
2023-05-01T19:42:48.928Z,7.07
2023-05-01T19:45:17.729Z,7.50
2023-05-01T19:47:45.275Z,6.68
2023-05-01T19:50:12.044Z,5.53
2023-05-01T19:52:39.049Z,5.28
2023-05-01T19:55:06.066Z,5.40
2023-05-01T19:57:33.742Z,6.25
2023-05-01T20:00:00.986Z,5.80
2023-05-01T20:02:28.459Z,5.53
2023-05-01T20:04:55.181Z,3.15
2023-05-01T20:07:22.012Z,3.25
2023-05-01T20:09:48.805Z,3.15
2023-05-01T20:12:15.637Z,4.50
2023-05-01T20:14:42.317Z,3.67
2023-05-01T20:17:09.361Z,4.25
2023-05-01T20:19:39.312Z,4.00
2023-05-01T20:22:06.331Z,5.28
2023-05-01T20:24:33.054Z,4.50
2023-05-01T20:27:00.106Z,5.03
2023-05-01T20:29:26.895Z,4.85
2023-05-01T20:31:53.526Z,4.72
2023-05-01T20:34:20.660Z,3.92
2023-05-01T20:36:47.324Z,7.72
2023-05-01T20:39:14.098Z,5.28
2023-05-01T20:41:40.713Z,4.32
2023-05-01T20:44:08.798Z,4.55
2023-05-01T20:46:35.401Z,5.15
2023-05-01T20:49:02.100Z,4.72
2023-05-01T20:51:29.048Z,4.53
2023-05-01T20:53:55.710Z,4.40
2023-05-01T20:56:23.600Z,4.15
2023-05-01T20:58:50.279Z,5.03
2023-05-01T21:01:16.883Z,4.30
2023-05-01T21:03:43.625Z,3.65
2023-05-01T21:06:10.464Z,3.92
2023-05-01T21:08:37.128Z,3.75
2023-05-01T21:11:03.801Z,3.13
2023-05-01T21:13:31.504Z,3.67
2023-05-01T21:15:58.132Z,4.93
2023-05-01T21:18:24.828Z,3.15
2023-05-01T21:20:51.470Z,4.47
2023-05-01T21:23:18.125Z,3.38
2023-05-01T21:25:44.850Z,3.42
2023-05-01T21:28:12.693Z,3.13
2023-05-01T21:30:39.521Z,3.10
2023-05-01T21:33:07.512Z,2.80
2023-05-01T21:35:34.343Z,2.95
2023-05-01T21:38:00.992Z,3.10
2023-05-01T21:40:27.689Z,2.58
2023-05-01T21:42:54.573Z,3.35
2023-05-01T21:45:21.210Z,2.72
2023-05-01T21:47:49.683Z,3.35
2023-05-01T21:50:18.502Z,2.97
2023-05-01T21:52:46.293Z,2.78
2023-05-01T21:55:26.821Z,3.13
2023-05-01T21:57:53.437Z,2.50
2023-05-01T22:00:20.661Z,3.03
2023-05-01T22:02:48.592Z,2.35
2023-05-01T22:05:16.746Z,2.97
2023-05-01T22:07:44.954Z,3.05
2023-05-01T22:10:15.661Z,3.10
2023-05-01T22:12:42.399Z,3.45
2023-05-01T22:15:10.111Z,3.08
2023-05-01T22:17:37.298Z,3.03
2023-05-01T22:20:07.028Z,2.90
2023-05-01T22:22:34.413Z,2.97
2023-05-01T22:25:01.302Z,2.70
2023-05-01T22:27:28.031Z,3.90
2023-05-01T22:29:54.719Z,3.03
2023-05-01T22:32:21.773Z,3.08
2023-05-01T22:34:48.691Z,3.40
2023-05-01T22:37:15.717Z,3.45
2023-05-01T22:39:42.513Z,4.05
2023-05-01T22:42:09.159Z,3.22
2023-05-01T22:44:36.469Z,5.60
2023-05-01T22:47:03.385Z,6.00
2023-05-01T22:49:31.943Z,4.53
2023-05-01T22:51:58.797Z,3.00
2023-05-01T22:54:25.716Z,3.28
2023-05-01T22:56:52.369Z,3.38
2023-05-01T22:59:19.236Z,4.43
2023-05-01T23:01:46.240Z,4.53
2023-05-01T23:04:13.910Z,4.90
2023-05-01T23:06:41.006Z,4.82
2023-05-01T23:09:08.424Z,5.05
2023-05-01T23:11:35.204Z,4.70
2023-05-01T23:14:02.066Z,4.82
2023-05-01T23:16:30.206Z,4.65
2023-05-01T23:18:56.944Z,5.00
2023-05-01T23:21:23.592Z,4.78
2023-05-01T23:23:50.611Z,4.65
2023-05-01T23:26:24.284Z,4.22
2023-05-01T23:28:50.918Z,4.43
2023-05-01T23:31:18.707Z,4.20
2023-05-01T23:33:45.383Z,4.05
2023-05-01T23:36:12.988Z,4.57
2023-05-01T23:38:40.344Z,4.10
2023-05-01T23:41:07.917Z,4.10
2023-05-01T23:43:34.973Z,3.80
2023-05-01T23:46:02.668Z,4.32
2023-05-01T23:48:29.287Z,4.30
2023-05-01T23:50:55.936Z,3.53
2023-05-01T23:53:22.513Z,3.78
2023-05-01T23:55:49.152Z,4.63
2023-05-01T23:58:16.713Z,4.63
